KHVR/HVR METAR and TAF weather

Enter ICAO airport designator
Station Type Date Time Source
KHVR METAR 2018/12/10 08:53 UTC NOAA

KHVR 100853Z AUTO 23012KT 10SM CLR 01/M06 A2998 RMK AO2 SLP174 T00111061 56019


Station Type Date Time Source
KHVR Decoded METAR 2018/12/10 08:53 UTC NOAA

HAVRE CITY-COUNTY AIRPORT, MT, United States (KHVR) 48-33N 109-46W 787M
Dec 10, 2018 - 03:53 AM EST / 2018.12.10 0853 UTC
Wind: from the SW (230 degrees) at 14 MPH (12 KT):0
Visibility: 10 mile(s):0
Sky conditions: clear
Temperature: 34.0 F (1.1 C)
Windchill: 24 F (-4 C):1
Dew Point: 21.0 F (-6.1 C)
Relative Humidity: 58%
Pressure (altimeter): 29.98 in. Hg (1015 hPa)
Pressure tendency: 0.06 inches (1.9 hPa) lower than three hours ago
ob: KHVR 100853Z AUTO 23012KT 10SM CLR 01/M06 A2998 RMK AO2 SLP174 T00111061 56019
cycle: 9

Station Type Date Time Source
KHVR TAF 2018/12/10 06:36 UTC NOAA

TAF KHVR 100535Z 1006/1106 25009KT P6SM FEW250
FM101200 22012G23KT P6SM BKN130
FM110200 25011KT P6SM SCT200


Example: see airport list